Time;durP1;ratioP1;P1;durP2;ratioP2;P2;SDS_P1;SDS_P2;PMS_P1;PMS_P2;Temp;Humidity;BMP_temperature;BMP_pressure;BME280_temperature;BME280_humidity;BME280_pressure;Samples;Min_cycle;Max_cycle;Signal;HPM_P1;HPM_P2
2021/05/02 00:01:47;;;;;;;11.63;8.63;;;;;;;6.55;64.21;100769.22;5031527;28;20041;-75
2021/05/02 00:04:12;;;;;;;11.82;9.00;;;;;;;6.47;64.10;100774.09;5019829;28;20119;-74
2021/05/02 00:06:38;;;;;;;10.95;9.30;;;;;;;6.45;64.59;100767.16;5017614;28;20029;-74
2021/05/02 00:09:03;;;;;;;12.25;9.05;;;;;;;6.41;64.56;100763.28;5018959;28;20037;-75
2021/05/02 00:11:29;;;;;;;13.52;8.90;;;;;;;6.35;64.54;100764.31;5007357;28;20065;-75
2021/05/02 00:13:54;;;;;;;11.43;9.05;;;;;;;6.31;64.57;100768.69;5034311;28;20037;-75
2021/05/02 00:16:20;;;;;;;12.30;9.02;;;;;;;6.26;64.77;100772.22;5014966;28;20084;-75
2021/05/02 00:18:47;;;;;;;10.70;9.02;;;;;;;6.20;64.35;100774.06;5032866;28;20029;-75
2021/05/02 00:21:12;;;;;;;11.35;8.25;;;;;;;6.18;64.31;100773.50;5013196;28;20030;-74
2021/05/02 00:23:39;;;;;;;13.52;9.70;;;;;;;6.14;64.67;100766.84;5019478;28;20025;-75
2021/05/02 00:26:05;;;;;;;11.20;8.70;;;;;;;6.09;64.53;100768.72;5030791;28;20036;-74
2021/05/02 00:28:31;;;;;;;12.85;9.13;;;;;;;6.01;64.78;100776.34;5047525;28;20030;-75
2021/05/02 00:30:57;;;;;;;13.93;8.80;;;;;;;5.99;64.58;100773.03;5018650;28;20484;-74
2021/05/02 00:33:22;;;;;;;12.35;8.73;;;;;;;5.99;64.58;100770.25;5033055;28;20041;-75
2021/05/02 00:35:48;;;;;;;12.68;8.80;;;;;;;5.94;64.42;100770.19;5019234;28;20053;-75
2021/05/02 00:38:14;;;;;;;11.13;8.98;;;;;;;5.93;64.29;100768.50;5049282;28;20040;-75
2021/05/02 00:40:41;;;;;;;12.07;9.07;;;;;;;5.81;64.55;100768.63;5031535;28;20453;-75
2021/05/02 00:43:26;;;;;;;14.15;9.18;;;;;;;5.79;64.62;100767.19;5015539;28;20033;-74
2021/05/02 00:46:05;;;;;;;11.90;8.90;;;;;;;5.78;64.64;100766.38;5016812;28;20026;-75
2021/05/02 00:48:50;;;;;;;13.23;8.48;;;;;;;5.68;64.63;100769.00;5018062;28;20109;-74
2021/05/02 00:51:16;;;;;;;12.45;8.52;;;;;;;5.68;64.65;100765.41;5049415;28;20033;-75
2021/05/02 00:53:54;;;;;;;11.90;8.57;;;;;;;5.60;64.87;100764.78;5018517;28;20414;-75
2021/05/02 00:56:24;;;;;;;13.55;8.98;;;;;;;5.52;65.11;100765.22;5023730;28;20613;-75
2021/05/02 00:59:03;;;;;;;12.32;8.90;;;;;;;5.52;65.28;100770.72;5002427;28;20116;-74
2021/05/02 01:01:31;;;;;;;10.82;8.77;;;;;;;5.48;65.28;100761.28;5041596;28;20044;-74
2021/05/02 01:03:58;;;;;;;12.15;9.07;;;;;;;5.47;64.93;100758.81;5038739;28;20022;-74
2021/05/02 01:06:24;;;;;;;12.43;8.77;;;;;;;5.42;65.12;100773.31;5016214;28;20133;-75
2021/05/02 01:08:50;;;;;;;14.07;9.18;;;;;;;5.35;65.25;100767.19;5014959;28;20025;-75
2021/05/02 01:11:16;;;;;;;11.55;8.95;;;;;;;5.31;65.42;100766.81;5012990;28;20032;-74
2021/05/02 01:13:45;;;;;;;12.65;9.27;;;;;;;5.32;65.30;100774.03;5016774;28;20397;-75
2021/05/02 01:16:12;;;;;;;12.57;9.48;;;;;;;5.31;65.37;100766.00;5015555;28;20025;-75
2021/05/02 01:18:39;;;;;;;14.00;10.32;;;;;;;5.26;65.53;100774.19;5032001;28;20045;-74
2021/05/02 01:21:04;;;;;;;13.82;9.65;;;;;;;5.22;65.62;100773.84;5011178;28;20493;-74
2021/05/02 01:23:30;;;;;;;13.10;9.18;;;;;;;5.21;65.42;100772.19;5020348;28;20049;-74
2021/05/02 01:25:59;;;;;;;12.30;9.45;;;;;;;5.19;65.61;100774.38;5022417;28;20034;-75
2021/05/02 01:28:26;;;;;;;14.35;9.73;;;;;;;5.19;65.54;100773.53;5043744;28;20018;-75
2021/05/02 01:30:52;;;;;;;14.05;9.68;;;;;;;5.15;65.43;100779.56;5024198;28;20037;-75
2021/05/02 01:33:18;;;;;;;13.05;9.95;;;;;;;5.05;65.40;100765.63;5003783;28;20113;-75
2021/05/02 01:35:44;;;;;;;12.75;9.82;;;;;;;5.03;65.78;100778.78;5045164;28;20045;-74
2021/05/02 01:38:09;;;;;;;11.95;8.98;;;;;;;5.01;65.85;100777.38;5027777;28;20034;-74
2021/05/02 01:40:35;;;;;;;13.00;9.55;;;;;;;4.93;65.77;100771.22;5030880;28;20037;-74
2021/05/02 01:43:01;;;;;;;13.73;9.77;;;;;;;4.88;66.12;100778.56;5029960;28;20056;-74
2021/05/02 01:45:26;;;;;;;12.88;9.38;;;;;;;4.88;65.92;100781.31;5019580;28;20044;-74
2021/05/02 01:48:03;;;;;;;14.23;9.48;;;;;;;4.90;65.76;100776.38;5033698;28;20048;-74
2021/05/02 01:50:28;;;;;;;14.07;9.88;;;;;;;4.81;66.06;100784.19;5030231;28;20029;-75
2021/05/02 01:52:54;;;;;;;14.05;9.85;;;;;;;4.78;66.04;100783.88;5014751;28;20049;-74
2021/05/02 01:55:20;;;;;;;13.88;9.52;;;;;;;4.79;65.52;100780.88;5013446;28;20109;-75
2021/05/02 01:57:46;;;;;;;11.70;8.38;;;;;;;4.78;66.07;100789.38;5023422;28;20497;-75
2021/05/02 02:00:24;;;;;;;11.18;8.63;;;;;;;4.75;65.95;100782.44;5039238;28;20037;-74
2021/05/02 02:02:53;;;;;;;13.18;9.45;;;;;;;4.70;65.81;100788.69;5031128;28;20033;-74
2021/05/02 02:05:22;;;;;;;14.30;9.90;;;;;;;4.67;66.19;100783.69;5004721;28;20030;-74
2021/05/02 02:07:48;;;;;;;13.48;9.32;;;;;;;4.67;65.99;100797.44;5017584;28;20026;-75
2021/05/02 02:10:16;;;;;;;13.80;10.05;;;;;;;4.57;66.17;100793.66;5014364;28;20371;-74
2021/05/02 02:12:41;;;;;;;13.50;9.57;;;;;;;4.61;66.14;100795.69;5031641;28;20402;-74
2021/05/02 02:15:10;;;;;;;13.75;9.63;;;;;;;4.56;66.17;100800.25;5028581;28;20038;-74
2021/05/02 02:17:36;;;;;;;13.27;9.68;;;;;;;4.52;66.11;100808.19;5026096;28;20546;-74
2021/05/02 02:20:03;;;;;;;13.25;9.57;;;;;;;4.53;65.90;100798.84;5034422;28;20026;-74
2021/05/02 02:22:30;;;;;;;13.40;9.23;;;;;;;4.48;66.25;100799.59;5032564;28;20029;-75
2021/05/02 02:24:59;;;;;;;12.82;9.55;;;;;;;4.44;66.36;100800.31;5018327;28;20033;-74
2021/05/02 02:27:29;;;;;;;12.90;9.20;;;;;;;4.41;66.43;100795.31;5053762;28;20033;-74
2021/05/02 02:30:08;;;;;;;13.90;9.57;;;;;;;4.39;66.59;100798.31;5017088;28;20026;-76
2021/05/02 02:32:35;;;;;;;12.77;9.77;;;;;;;4.31;66.45;100798.69;5052454;28;20396;-74
2021/05/02 02:35:02;;;;;;;14.43;9.80;;;;;;;4.30;66.70;100809.97;5036354;28;20056;-75
2021/05/02 02:37:27;;;;;;;11.38;8.98;;;;;;;4.30;66.45;100805.28;5003983;28;20025;-75
2021/05/02 02:40:03;;;;;;;12.25;9.68;;;;;;;4.27;66.49;100811.28;5017852;28;20367;-74
2021/05/02 02:42:29;;;;;;;12.82;9.70;;;;;;;4.25;66.45;100806.00;5049302;28;20508;-74
2021/05/02 02:44:58;;;;;;;12.90;9.05;;;;;;;4.18;66.48;100809.97;4990692;28;20029;-74
2021/05/02 02:47:25;;;;;;;14.57;10.07;;;;;;;4.14;66.54;100815.13;5001452;28;20018;-74
2021/05/02 02:49:56;;;;;;;12.80;9.60;;;;;;;4.15;66.54;100814.09;5018188;28;20029;-75
2021/05/02 02:52:22;;;;;;;14.02;9.23;;;;;;;4.13;66.52;100807.97;5011455;28;20123;-74
2021/05/02 02:55:05;;;;;;;13.27;9.82;;;;;;;4.10;66.83;100815.88;5037468;28;20026;-74
2021/05/02 02:57:38;;;;;;;13.13;9.60;;;;;;;4.05;66.84;100813.88;5018774;28;20041;-74
2021/05/02 03:00:05;;;;;;;11.75;9.40;;;;;;;4.03;66.73;100814.09;5036588;28;20525;-74
2021/05/02 03:02:30;;;;;;;14.27;9.90;;;;;;;4.00;66.80;100819.25;5004174;28;20033;-74
2021/05/02 03:04:56;;;;;;;13.63;10.15;;;;;;;3.98;66.73;100824.16;5016847;28;20063;-74
2021/05/02 03:07:22;;;;;;;14.10;9.80;;;;;;;4.00;66.88;100822.00;5025985;28;20029;-74
2021/05/02 03:09:48;;;;;;;14.50;9.77;;;;;;;3.99;66.66;100815.66;4997093;28;20040;-74
2021/05/02 03:12:14;;;;;;;11.18;9.27;;;;;;;3.93;66.83;100822.16;5026342;28;20025;-74
2021/05/02 03:14:39;;;;;;;14.68;9.52;;;;;;;3.91;66.83;100824.28;5020443;28;20025;-74
2021/05/02 03:17:05;;;;;;;14.27;9.70;;;;;;;3.85;67.15;100819.78;5019482;28;20037;-74
2021/05/02 03:19:32;;;;;;;12.07;8.55;;;;;;;3.80;66.90;100823.22;5032448;28;20041;-74
2021/05/02 03:22:07;;;;;;;13.65;9.82;;;;;;;3.78;67.20;100825.38;5032289;28;20742;-75
2021/05/02 03:24:40;;;;;;;14.93;9.88;;;;;;;3.78;67.17;100825.38;5046612;28;20457;-74
2021/05/02 03:27:21;;;;;;;13.43;9.35;;;;;;;3.73;67.13;100818.94;5019000;28;20157;-74
2021/05/02 03:29:50;;;;;;;14.90;10.27;;;;;;;3.75;67.13;100825.84;5019925;28;20037;-75
2021/05/02 03:32:15;;;;;;;14.40;10.43;;;;;;;3.67;67.12;100826.22;5046077;28;20124;-75
2021/05/02 03:34:42;;;;;;;14.75;10.23;;;;;;;3.67;67.19;100822.66;5006506;28;20082;-74
2021/05/02 03:37:10;;;;;;;14.48;9.93;;;;;;;3.61;67.36;100835.44;5012280;28;20088;-74
2021/05/02 03:39:37;;;;;;;14.07;10.15;;;;;;;3.63;67.20;100827.81;5008211;28;20044;-74
2021/05/02 03:42:02;;;;;;;12.35;9.25;;;;;;;3.58;67.19;100831.25;5012794;28;20032;-74
2021/05/02 03:44:28;;;;;;;12.77;9.50;;;;;;;3.54;67.40;100832.81;5012638;28;20026;-74
2021/05/02 03:46:53;;;;;;;14.80;10.32;;;;;;;3.49;67.25;100834.63;5020721;28;20033;-73
2021/05/02 03:49:19;;;;;;;13.98;9.63;;;;;;;3.51;67.48;100825.06;5009998;28;20030;-74
2021/05/02 03:51:44;;;;;;;14.27;10.35;;;;;;;3.45;67.57;100825.16;5009350;28;20021;-74
2021/05/02 03:54:10;;;;;;;12.63;9.68;;;;;;;3.49;67.46;100826.38;5019637;28;20025;-74
2021/05/02 03:56:45;;;;;;;15.50;10.05;;;;;;;3.47;67.68;100839.50;5063185;28;20084;-74
2021/05/02 03:59:15;;;;;;;12.90;10.20;;;;;;;3.41;67.35;100838.56;4992133;28;20533;-74
2021/05/02 04:01:48;;;;;;;13.85;10.32;;;;;;;3.41;67.65;100840.47;5017838;28;20470;-74
2021/05/02 04:04:15;;;;;;;13.25;10.38;;;;;;;3.44;67.52;100846.31;5045353;28;20057;-74
2021/05/02 04:06:41;;;;;;;14.05;10.25;;;;;;;3.45;67.51;100842.47;4994428;28;20500;-74
2021/05/02 04:09:07;;;;;;;13.93;10.05;;;;;;;3.38;67.38;100846.44;5035143;28;20053;-74
2021/05/02 04:11:32;;;;;;;14.15;10.32;;;;;;;3.38;67.50;100846.44;5029087;28;20650;-74
2021/05/02 04:14:00;;;;;;;15.43;9.90;;;;;;;3.33;67.51;100847.97;5002579;28;20056;-74
2021/05/02 04:16:26;;;;;;;14.57;10.45;;;;;;;3.30;67.62;100842.97;5014445;28;20034;-74
2021/05/02 04:18:51;;;;;;;15.18;10.50;;;;;;;3.29;67.65;100849.53;5017213;28;20056;-74
2021/05/02 04:21:17;;;;;;;15.82;11.15;;;;;;;3.31;67.72;100852.03;5004455;28;20038;-74
2021/05/02 04:23:42;;;;;;;14.73;10.68;;;;;;;3.28;67.86;100853.34;5026085;28;20030;-74
2021/05/02 04:26:08;;;;;;;14.02;10.80;;;;;;;3.26;67.67;100858.25;5004718;28;20037;-74
2021/05/02 04:28:33;;;;;;;14.65;10.32;;;;;;;3.23;68.05;100864.22;5035080;28;20021;-74
2021/05/02 04:30:59;;;;;;;13.18;10.23;;;;;;;3.24;67.84;100859.56;5011638;28;20478;-74
2021/05/02 04:33:24;;;;;;;16.27;10.75;;;;;;;3.19;67.99;100863.00;5032753;28;20026;-74
2021/05/02 04:35:50;;;;;;;15.82;10.52;;;;;;;3.18;67.92;100864.09;5010898;28;20054;-74
2021/05/02 04:38:15;;;;;;;15.20;10.23;;;;;;;3.12;67.87;100862.25;5026230;28;20038;-74
2021/05/02 04:40:41;;;;;;;14.77;10.15;;;;;;;3.13;67.99;100869.44;5032017;28;20061;-74
2021/05/02 04:43:08;;;;;;;15.63;10.25;;;;;;;3.12;67.83;100865.88;5048730;28;20045;-74
2021/05/02 04:45:34;;;;;;;14.20;10.48;;;;;;;3.08;68.04;100872.06;5032771;28;20100;-74
2021/05/02 04:47:59;;;;;;;15.25;10.68;;;;;;;3.12;68.05;100874.09;5036608;28;20033;-74
2021/05/02 04:50:25;;;;;;;15.52;11.00;;;;;;;3.05;67.88;100867.88;5011245;28;20029;-74
2021/05/02 04:52:50;;;;;;;14.05;10.35;;;;;;;3.04;68.10;100873.59;4997756;28;20064;-74
2021/05/02 04:55:16;;;;;;;12.05;9.32;;;;;;;3.00;68.24;100869.66;5016213;28;20034;-74
2021/05/02 04:57:42;;;;;;;12.68;9.70;;;;;;;3.03;68.14;100872.75;5023987;28;20029;-74
2021/05/02 05:00:08;;;;;;;15.13;10.20;;;;;;;2.97;68.30;100887.41;5016656;28;20041;-74
2021/05/02 05:02:33;;;;;;;14.00;10.05;;;;;;;2.96;68.44;100883.00;5015427;28;20041;-74
2021/05/02 05:04:59;;;;;;;16.88;10.05;;;;;;;2.95;68.39;100891.47;5016009;28;20033;-75
2021/05/02 05:07:24;;;;;;;16.02;10.32;;;;;;;2.93;68.44;100888.97;5034026;28;20021;-74
2021/05/02 05:09:50;;;;;;;15.55;10.98;;;;;;;2.89;68.76;100891.31;5012100;28;20040;-74
2021/05/02 05:12:15;;;;;;;14.27;10.40;;;;;;;2.90;68.88;100900.41;5014238;28;20032;-74
2021/05/02 05:14:41;;;;;;;14.13;10.80;;;;;;;2.98;68.59;100901.97;5013266;28;20036;-74
2021/05/02 05:17:06;;;;;;;15.73;11.93;;;;;;;2.91;68.87;100894.69;5029870;28;20033;-74
2021/05/02 05:19:32;;;;;;;17.52;11.35;;;;;;;2.94;68.90;100903.50;5012858;28;20038;-74
2021/05/02 05:21:57;;;;;;;15.50;10.93;;;;;;;2.96;69.22;100902.22;5015204;28;20480;-74
2021/05/02 05:24:23;;;;;;;13.98;10.60;;;;;;;3.00;69.05;100906.16;5036380;28;20650;-74
2021/05/02 05:26:48;;;;;;;15.48;11.25;;;;;;;3.03;69.22;100904.84;5033654;28;20100;-75
2021/05/02 05:29:14;;;;;;;14.25;11.05;;;;;;;3.09;69.23;100914.88;5047343;28;20033;-74
2021/05/02 05:31:39;;;;;;;15.95;11.38;;;;;;;3.20;69.22;100914.06;5006069;28;20040;-75
2021/05/02 05:34:05;;;;;;;16.10;11.23;;;;;;;3.23;69.72;100918.25;5009549;28;20490;-74
2021/05/02 05:36:30;;;;;;;14.40;11.40;;;;;;;3.29;70.06;100925.56;5013803;28;20041;-74
2021/05/02 05:38:56;;;;;;;15.60;11.27;;;;;;;3.36;70.04;100923.53;5037550;28;20037;-74
2021/05/02 05:41:21;;;;;;;18.85;12.32;;;;;;;3.44;70.13;100925.09;5029916;28;20030;-75
2021/05/02 05:43:47;;;;;;;16.90;11.98;;;;;;;3.53;70.29;100930.00;5014644;28;20037;-74
2021/05/02 05:46:13;;;;;;;18.30;12.45;;;;;;;3.62;71.97;100933.22;5023555;28;20049;-74
2021/05/02 05:48:41;;;;;;;19.52;12.95;;;;;;;3.71;72.92;100929.06;5008026;28;20474;-74
2021/05/02 05:51:08;;;;;;;17.90;13.15;;;;;;;3.81;72.95;100934.78;5030370;28;20030;-74
2021/05/02 05:53:34;;;;;;;20.73;13.48;;;;;;;3.93;73.18;100931.22;5016537;28;20379;-74
2021/05/02 05:55:59;;;;;;;19.95;13.45;;;;;;;4.05;73.12;100934.78;5000781;28;20108;-74
2021/05/02 05:58:26;;;;;;;20.05;13.48;;;;;;;4.20;73.39;100942.53;5022383;28;20080;-74
2021/05/02 06:00:52;;;;;;;17.98;12.85;;;;;;;4.33;73.62;100935.94;5030175;28;20065;-74
2021/05/02 06:03:17;;;;;;;19.77;14.07;;;;;;;4.48;74.54;100953.63;5023282;28;20394;-74
2021/05/02 06:05:43;;;;;;;20.40;13.70;;;;;;;4.63;73.96;100946.75;5018613;28;20060;-74
2021/05/02 06:08:09;;;;;;;18.92;14.30;;;;;;;4.80;74.35;100947.66;5028342;28;20063;-74
2021/05/02 06:10:34;;;;;;;19.25;13.80;;;;;;;4.96;74.62;100950.69;5002045;28;20041;-75
2021/05/02 06:13:00;;;;;;;18.23;12.30;;;;;;;5.12;73.00;100950.72;5017334;28;20056;-74
2021/05/02 06:15:25;;;;;;;14.93;11.45;;;;;;;5.28;71.14;100948.25;5015983;28;20033;-75
2021/05/02 06:17:51;;;;;;;15.43;11.55;;;;;;;5.44;70.83;100950.22;4999175;28;20029;-74
2021/05/02 06:20:16;;;;;;;15.60;11.82;;;;;;;5.65;70.96;100953.28;5016890;28;20029;-74
2021/05/02 06:22:42;;;;;;;17.90;12.48;;;;;;;5.81;70.44;100957.97;5033381;28;20041;-75
2021/05/02 06:25:08;;;;;;;16.27;11.38;;;;;;;5.98;69.72;100950.53;5001267;28;20028;-74
2021/05/02 06:27:34;;;;;;;12.30;10.02;;;;;;;6.19;68.52;100953.63;5012193;28;20034;-74
2021/05/02 06:30:00;;;;;;;16.25;10.40;;;;;;;6.38;67.49;100955.00;5019494;28;20030;-75
2021/05/02 06:32:25;;;;;;;15.55;11.50;;;;;;;6.58;67.81;100957.19;5046958;28;20029;-73
2021/05/02 06:34:52;;;;;;;14.95;11.60;;;;;;;6.78;68.88;100959.34;4995281;28;20116;-74
2021/05/02 06:37:18;;;;;;;15.57;11.40;;;;;;;6.97;67.44;100951.56;5037433;28;20048;-75
2021/05/02 06:39:43;;;;;;;16.65;11.57;;;;;;;7.18;67.83;100954.53;5014324;28;20533;-74
2021/05/02 06:42:09;;;;;;;13.52;10.65;;;;;;;7.36;65.91;100956.94;5015012;28;20040;-75
2021/05/02 06:44:34;;;;;;;20.05;14.55;;;;;;;7.57;70.01;100956.00;5016090;28;20033;-74
2021/05/02 06:47:00;;;;;;;16.33;12.07;;;;;;;7.75;69.17;100963.09;5028111;28;20029;-75
2021/05/02 06:49:26;;;;;;;16.42;11.70;;;;;;;7.92;68.18;100962.94;5026647;28;20026;-75
2021/05/02 06:51:52;;;;;;;17.02;12.93;;;;;;;8.14;68.87;100970.28;5016837;28;20034;-75
2021/05/02 06:54:17;;;;;;;18.58;13.25;;;;;;;8.30;69.34;100966.47;5027759;28;20029;-75
2021/05/02 06:56:43;;;;;;;18.48;13.25;;;;;;;8.51;67.85;100967.47;4969457;28;20037;-75
2021/05/02 06:59:09;;;;;;;15.27;12.32;;;;;;;8.68;67.02;100968.09;5047908;28;20103;-75
2021/05/02 07:01:35;;;;;;;20.42;12.50;;;;;;;8.90;67.11;100965.16;5039733;28;20037;-75
2021/05/02 07:04:00;;;;;;;16.80;12.55;;;;;;;9.11;66.62;100971.59;5023136;28;20037;-74
2021/05/02 07:06:27;;;;;;;21.75;15.15;;;;;;;9.24;69.07;100974.94;5016035;28;20026;-75
2021/05/02 07:08:52;;;;;;;18.20;13.60;;;;;;;9.48;67.61;100978.03;5019260;28;20131;-75
2021/05/02 07:11:18;;;;;;;20.48;15.48;;;;;;;9.63;67.95;100978.88;5016245;28;20037;-75
2021/05/02 07:13:43;;;;;;;21.30;15.88;;;;;;;9.82;69.00;100970.81;5036842;28;20029;-75
2021/05/02 07:16:10;;;;;;;18.88;14.73;;;;;;;10.02;67.59;100980.25;5019831;28;20030;-74
2021/05/02 07:18:36;;;;;;;19.33;15.00;;;;;;;10.17;67.13;100977.47;5050188;28;20040;-75
2021/05/02 07:21:02;;;;;;;17.85;14.10;;;;;;;10.39;66.27;100979.97;5031074;28;20029;-75
2021/05/02 07:23:27;;;;;;;19.95;15.13;;;;;;;10.54;67.05;100981.03;5020283;28;20140;-75
2021/05/02 07:25:53;;;;;;;27.27;16.65;;;;;;;10.73;65.58;100987.63;5028211;28;20026;-75
2021/05/02 07:28:19;;;;;;;22.27;16.88;;;;;;;10.91;66.09;100989.75;5026169;28;20089;-75
2021/05/02 07:30:44;;;;;;;21.77;17.00;;;;;;;11.04;65.27;100991.09;5011452;28;20026;-75
2021/05/02 07:33:10;;;;;;;22.88;17.63;;;;;;;11.18;64.63;100994.09;5030004;28;20033;-76
2021/05/02 07:35:35;;;;;;;21.17;16.08;;;;;;;11.36;63.58;100993.41;5040686;28;20054;-75
2021/05/02 07:38:02;;;;;;;21.73;16.35;;;;;;;11.51;64.25;100997.25;5035172;28;20042;-75
2021/05/02 07:40:27;;;;;;;22.17;15.63;;;;;;;11.64;62.67;100999.34;4999887;28;20028;-75
2021/05/02 07:42:53;;;;;;;26.77;19.17;;;;;;;11.77;63.70;100997.88;5015503;28;20033;-75
2021/05/02 07:45:18;;;;;;;23.40;18.13;;;;;;;11.85;63.30;101000.03;4995212;28;20025;-76
2021/05/02 07:47:44;;;;;;;19.45;14.50;;;;;;;12.08;61.94;100999.28;5028938;28;20034;-76
2021/05/02 07:50:10;;;;;;;20.88;16.20;;;;;;;12.20;61.97;100992.50;5034087;28;20036;-75
2021/05/02 07:52:35;;;;;;;23.13;17.50;;;;;;;12.35;61.58;100997.13;5014023;28;20041;-75
2021/05/02 07:55:01;;;;;;;21.52;14.60;;;;;;;12.48;60.15;100993.59;5023205;28;20396;-75
2021/05/02 07:57:26;;;;;;;22.58;17.00;;;;;;;12.58;61.30;101001.03;5028689;28;20049;-75
2021/05/02 07:59:52;;;;;;;22.33;15.75;;;;;;;12.77;60.36;101003.91;5024383;28;20026;-76
2021/05/02 08:02:18;;;;;;;18.60;15.43;;;;;;;12.91;59.98;100999.25;5000858;28;20037;-76
2021/05/02 08:04:47;;;;;;;19.15;15.18;;;;;;;13.07;59.34;101002.69;5028759;28;20378;-75
2021/05/02 08:07:12;;;;;;;17.80;14.07;;;;;;;13.18;58.77;100991.09;5033630;28;20033;-76
2021/05/02 08:09:38;;;;;;;20.35;15.35;;;;;;;13.21;58.70;101002.78;5033322;28;20033;-76
2021/05/02 08:12:04;;;;;;;18.88;14.13;;;;;;;13.44;58.32;101001.91;5032620;28;20056;-75
2021/05/02 08:14:30;;;;;;;20.95;14.48;;;;;;;13.48;58.62;101002.97;5029335;28;20034;-76
2021/05/02 08:16:55;;;;;;;17.30;12.48;;;;;;;13.70;57.46;101002.34;5027179;28;20556;-76
2021/05/02 08:19:21;;;;;;;14.52;10.95;;;;;;;13.81;56.77;101006.63;5021347;28;20029;-76
2021/05/02 08:21:47;;;;;;;16.95;12.45;;;;;;;13.80;56.86;101012.53;5034321;28;20036;-76
2021/05/02 08:24:12;;;;;;;13.65;11.38;;;;;;;14.01;56.20;101007.44;5033013;28;20026;-76
2021/05/02 08:26:39;;;;;;;16.17;11.98;;;;;;;14.12;55.87;101013.69;5035140;28;20033;-76
2021/05/02 08:29:05;;;;;;;18.73;14.25;;;;;;;14.06;56.88;101005.38;5041401;28;20029;-76
2021/05/02 08:31:30;;;;;;;18.00;13.20;;;;;;;14.28;55.95;101009.47;5034716;28;20044;-76
2021/05/02 08:33:56;;;;;;;13.32;9.73;;;;;;;14.39;54.87;101010.97;5022294;28;20441;-76
2021/05/02 08:36:21;;;;;;;12.73;10.40;;;;;;;14.42;54.80;101010.34;5034729;28;20493;-76
2021/05/02 08:38:47;;;;;;;12.32;9.52;;;;;;;14.48;54.74;101014.69;5016100;28;20036;-76
2021/05/02 08:41:12;;;;;;;11.80;9.75;;;;;;;14.59;54.63;101015.34;5042765;28;20038;-76
2021/05/02 08:43:38;;;;;;;11.60;9.15;;;;;;;14.71;54.38;101012.91;5041648;28;20473;-76
2021/05/02 08:46:04;;;;;;;11.90;8.45;;;;;;;14.86;54.26;101014.56;5031885;28;20508;-76
2021/05/02 08:48:29;;;;;;;12.27;7.88;;;;;;;15.03;54.17;101013.09;5034120;28;20033;-76
2021/05/02 08:50:56;;;;;;;8.90;6.82;;;;;;;15.17;53.79;101009.13;5016249;28;20034;-76
2021/05/02 08:53:22;;;;;;;9.38;7.88;;;;;;;15.27;53.73;101019.28;5043200;28;20025;-76
2021/05/02 08:55:47;;;;;;;10.70;7.85;;;;;;;15.41;53.31;101010.88;5015893;28;20068;-76
2021/05/02 08:58:18;;;;;;;10.43;7.13;;;;;;;15.51;53.10;101013.41;5033163;28;20482;-76
2021/05/02 09:00:44;;;;;;;11.07;7.35;;;;;;;15.61;52.68;101006.78;5018367;28;20371;-77
2021/05/02 09:03:09;;;;;;;11.88;8.45;;;;;;;15.64;52.00;101015.34;5024519;28;20040;-76
2021/05/02 09:05:45;;;;;;;9.73;7.32;;;;;;;15.67;51.83;101013.09;5033074;28;20041;-76
2021/05/02 09:08:31;;;;;;;9.18;6.85;;;;;;;15.72;52.02;101013.81;5018037;28;20119;-76
2021/05/02 09:10:57;;;;;;;10.13;7.25;;;;;;;15.80;50.87;101009.44;5034199;28;20105;-76
2021/05/02 09:13:23;;;;;;;9.82;7.40;;;;;;;15.88;50.59;101010.63;5015950;28;20522;-76
2021/05/02 09:16:02;;;;;;;11.88;8.63;;;;;;;15.95;49.65;101011.84;4986444;28;20017;-76
2021/05/02 09:18:37;;;;;;;10.70;7.35;;;;;;;15.97;49.94;101014.34;5018606;28;20258;-76
2021/05/02 09:21:27;;;;;;;10.27;8.00;;;;;;;15.97;49.25;101012.38;5043005;28;20053;-76
2021/05/02 09:23:54;;;;;;;10.30;8.30;;;;;;;15.88;48.38;101008.69;5014687;28;20036;-76
2021/05/02 09:26:22;;;;;;;9.85;7.90;;;;;;;15.70;48.68;101010.50;5044833;28;20429;-75
2021/05/02 09:28:56;;;;;;;9.57;6.95;;;;;;;15.72;48.58;101016.63;5032400;28;20109;-76
2021/05/02 09:31:31;;;;;;;9.52;6.70;;;;;;;15.73;49.19;101014.63;5024797;28;20040;-76
2021/05/02 09:34:16;;;;;;;8.63;7.35;;;;;;;15.69;49.08;101014.47;5031454;28;20022;-76
2021/05/02 09:36:56;;;;;;;10.00;6.78;;;;;;;15.63;49.97;101019.31;5033737;28;20041;-76
2021/05/02 09:39:47;;;;;;;8.73;7.22;;;;;;;15.54;49.52;101023.16;5030016;28;20032;-76
2021/05/02 09:42:23;;;;;;;10.63;8.43;;;;;;;15.19;48.53;101014.44;5032848;28;20577;-76
2021/05/02 09:44:52;;;;;;;9.75;7.93;;;;;;;15.01;49.30;101023.78;5016440;28;20030;-76
2021/05/02 09:47:35;;;;;;;10.02;8.35;;;;;;;15.14;49.14;101020.13;5049272;28;20029;-76
2021/05/02 09:50:14;;;;;;;12.05;8.73;;;;;;;15.00;49.05;101024.91;5064733;28;20034;-76
2021/05/02 09:52:48;;;;;;;12.35;8.57;;;;;;;14.90;49.40;101023.16;5033012;28;20038;-76
2021/05/02 09:55:23;;;;;;;10.77;8.02;;;;;;;14.97;49.29;101026.38;5065210;28;20038;-76
2021/05/02 09:57:56;;;;;;;10.88;7.90;;;;;;;15.00;48.37;101030.50;5031623;28;20060;-76
2021/05/02 10:00:32;;;;;;;7.72;6.30;;;;;;;15.26;48.35;101020.41;5034091;28;20033;-76
2021/05/02 10:02:58;;;;;;;9.32;5.95;;;;;;;15.45;48.31;101009.09;5003473;28;20083;-76
2021/05/02 10:05:23;;;;;;;7.97;5.95;;;;;;;15.64;47.18;101018.16;5017889;28;20088;-76
2021/05/02 10:07:49;;;;;;;6.65;4.75;;;;;;;15.82;47.81;101018.31;5031917;28;20036;-76
2021/05/02 10:10:15;;;;;;;6.30;4.68;;;;;;;16.00;46.80;101014.53;4986394;28;20089;-76
2021/05/02 10:12:41;;;;;;;4.78;4.15;;;;;;;16.22;46.53;101010.06;5033024;28;20119;-77
2021/05/02 10:15:10;;;;;;;8.05;5.88;;;;;;;16.41;45.23;101013.47;5016261;28;20030;-76
2021/05/02 10:17:36;;;;;;;7.82;5.97;;;;;;;16.59;44.23;101011.59;5017280;28;20112;-76
2021/05/02 10:20:02;;;;;;;5.90;4.70;;;;;;;16.89;45.24;101011.91;5045354;28;20036;-76
2021/05/02 10:22:27;;;;;;;8.15;5.72;;;;;;;17.13;44.85;101012.31;5028957;28;20026;-76
2021/05/02 10:24:53;;;;;;;6.53;4.95;;;;;;;17.33;44.39;101013.69;5033491;28;20033;-76
2021/05/02 10:27:18;;;;;;;8.07;6.10;;;;;;;17.52;44.18;101007.75;5030174;28;20036;-76
2021/05/02 10:29:48;;;;;;;5.93;4.50;;;;;;;17.72;44.09;100999.81;5002335;28;20033;-77
2021/05/02 10:32:15;;;;;;;5.20;4.47;;;;;;;18.01;43.00;101002.81;5033969;28;20037;-76
2021/05/02 10:34:42;;;;;;;7.53;5.38;;;;;;;18.31;41.83;101002.94;5032089;28;20054;-76
2021/05/02 10:37:29;;;;;;;8.07;5.90;;;;;;;18.42;40.81;101001.41;5010821;28;20124;-77
2021/05/02 10:40:07;;;;;;;8.23;5.82;;;;;;;18.61;40.58;101003.84;5016516;28;20069;-76
2021/05/02 10:42:40;;;;;;;7.53;4.88;;;;;;;18.77;41.21;100990.06;5035280;28;20029;-77
2021/05/02 10:45:27;;;;;;;6.18;4.65;;;;;;;18.93;42.54;101002.41;5024284;28;20432;-77
2021/05/02 10:47:54;;;;;;;8.05;4.88;;;;;;;19.13;43.05;100992.34;5038375;28;20071;-77
2021/05/02 10:50:34;;;;;;;6.53;5.80;;;;;;;19.23;42.73;100999.59;5030679;28;20052;-77
2021/05/02 10:53:10;;;;;;;5.72;4.15;;;;;;;19.41;43.01;101000.28;5019520;28;20080;-77
2021/05/02 10:55:55;;;;;;;5.88;4.78;;;;;;;19.50;42.39;100992.63;5037950;28;20033;-76
2021/05/02 10:58:21;;;;;;;7.95;6.18;;;;;;;19.51;42.65;100996.25;5036960;28;20064;-77
2021/05/02 11:01:02;;;;;;;5.68;4.63;;;;;;;19.49;42.50;100988.13;5034938;28;20040;-77
2021/05/02 11:03:40;;;;;;;7.55;6.75;;;;;;;19.38;41.08;101001.78;5070130;28;20072;-77
2021/05/02 11:06:08;;;;;;;6.88;5.63;;;;;;;19.27;41.34;100996.91;5036696;28;20033;-77
2021/05/02 11:08:56;;;;;;;6.25;5.15;;;;;;;19.19;42.29;101001.41;5019415;28;20064;-77
2021/05/02 11:11:31;;;;;;;6.13;5.25;;;;;;;19.09;41.82;100996.19;5036971;28;20044;-77
2021/05/02 11:16:41;;;;;;;9.63;5.88;;;;;;;18.88;42.38;100999.78;5036244;28;20029;-76
2021/05/02 11:19:28;;;;;;;6.57;5.50;;;;;;;18.74;42.87;100997.19;5016301;28;20060;-76
2021/05/02 11:21:56;;;;;;;7.90;4.80;;;;;;;18.65;42.57;101001.19;5036221;28;20514;-76
2021/05/02 11:24:47;;;;;;;7.07;4.50;;;;;;;18.56;42.62;100998.41;5035997;28;20025;-76
2021/05/02 11:29:50;;;;;;;6.63;5.53;;;;;;;18.36;41.22;100999.94;5042119;28;20087;-77